Chamberlain Brothers Ranch, WY

01:25 AM MST die 29o November, anno 2014 (GMT -0700)
Converse County | Change Station
CLOSE
Current Station
Airport
Location: Douglas,
Elevation: 4928 ft
Nearby Weather Stations

Elev 4928 ft 42.80 °N, 105.38 °W | Updated 32 minutes ago

Serena
Serena
49 °F
Feels Like 49 °F
N
10
Ventus Variabilis Ventus from Magis Zephyrus quam Auster

Hodie
High -- | Low -- °F
--% Chance of Precip.
Yesterday
High -- | Low -- °F
Precip. -- in
7:11 AM 4:30 PM
Waxing Crescent, 49% visible
Pressio 29.50 in
Visibilitas 10.0 milia passuum
Clouds Serena
Frigus in quo Ros apparet 14 °F
Umor 25%
Rainfall 0.00 in
Snow Depth Not available.
UV 0 out of 12
Pollen .10 out of 12
Air Quality Not available.
Flu Activity Not available.
METAR KDGW 290753Z AUTO 24009KT 10SM CLR 09/M10 A2961 RMK AO2 SLP989 T00941100

More Conditions Fewer Conditions

Pressio 29.50 in
Visibilitas 10.0 milia passuum
Clouds Serena
Frigus in quo Ros apparet 14 °F
Umor 25%
Rainfall 0.00 in
Snow Depth Not available.
UV 0 out of 12
Pollen .10 out of 12
Air Quality Not available.
Flu Activity Not available.
METAR KDGW 290753Z AUTO 24009KT 10SM CLR 09/M10 A2961 RMK AO2 SLP989 T00941100

More Conditions Fewer Conditions

10-Day Weather Forecast

Almanac

Astronomy

Nov. 29, 2014 Rise Set
Actual Time
Civil Twilight
Nautical Twilight
Astronomical Twilight
Moon
Length Of Visible Light
Length of Day
Tomorrow will be .
, % of the Moon is Illuminated

Today's Extremes

State Highs State Lows

Community

WunderPhotos

Upload Photos

1,774,432 photos uploaded!

WunderBlogs® & News

Nearby

Air Quality

  Air Quality AQ Index Pollutant
Not available.

Snow Depth

Station Depth Elevation

Earthquake Activity

City Distance Mag. Time & Date
Minimum magnitude displayed is 2.5.

Coastal Water Temperatures

Locus Calor

Nearby Weather Stations